createdAt,value
2022-11-17T00:01:11.626Z,10.10
2022-11-17T00:03:26.204Z,7.00
2022-11-17T00:05:41.232Z,7.20
2022-11-17T00:07:54.614Z,6.60
2022-11-17T00:10:08.332Z,7.80
2022-11-17T00:12:43.889Z,9.20
2022-11-17T00:14:57.536Z,8.80
2022-11-17T00:17:13.103Z,7.30
2022-11-17T00:19:42.999Z,7.40
2022-11-17T00:21:56.576Z,6.70
2022-11-17T00:24:10.568Z,7.40
2022-11-17T00:26:25.545Z,7.00
2022-11-17T00:28:38.928Z,6.20
2022-11-17T00:31:09.571Z,6.40
2022-11-17T00:33:39.610Z,6.50
2022-11-17T00:35:58.056Z,6.90
2022-11-17T00:38:20.118Z,6.20
2022-11-17T00:40:37.187Z,7.00
2022-11-17T00:42:52.459Z,7.30
2022-11-17T00:45:09.267Z,8.50
2022-11-17T00:47:26.845Z,8.80
2022-11-17T00:49:43.901Z,8.10
2022-11-17T00:51:58.319Z,9.30
2022-11-17T00:54:15.777Z,8.60
2022-11-17T00:56:33.258Z,9.30
2022-11-17T00:58:46.879Z,7.50
2022-11-17T01:01:00.270Z,7.40
2022-11-17T01:03:15.122Z,8.20
2022-11-17T01:05:33.017Z,7.10
2022-11-17T01:07:48.269Z,8.30
2022-11-17T01:10:03.305Z,8.30
2022-11-17T01:12:16.771Z,9.00
2022-11-17T01:14:33.570Z,9.00
2022-11-17T01:16:47.924Z,7.00
2022-11-17T01:19:02.745Z,7.90
2022-11-17T01:21:19.859Z,7.60
2022-11-17T01:23:35.531Z,7.00
2022-11-17T01:25:52.570Z,7.60
2022-11-17T01:28:06.445Z,6.60
2022-11-17T01:30:23.516Z,6.30
2022-11-17T01:32:36.779Z,7.10
2022-11-17T01:34:55.176Z,5.50
2022-11-17T01:37:23.790Z,5.20
2022-11-17T01:39:37.634Z,4.90
2022-11-17T01:41:56.121Z,6.70
2022-11-17T01:44:52.754Z,5.10
2022-11-17T01:47:10.015Z,4.90
2022-11-17T01:49:31.929Z,5.40
2022-11-17T01:51:48.682Z,5.00
2022-11-17T01:54:04.653Z,5.00
2022-11-17T01:56:24.503Z,4.20
2022-11-17T01:58:41.376Z,4.40
2022-11-17T02:00:56.088Z,4.10
2022-11-17T02:03:10.221Z,4.40
2022-11-17T02:05:38.806Z,4.00
2022-11-17T02:07:57.923Z,4.00
2022-11-17T02:10:13.244Z,3.70
2022-11-17T02:12:29.338Z,3.60
2022-11-17T02:14:44.815Z,3.70
2022-11-17T02:17:10.077Z,3.70
2022-11-17T02:19:29.625Z,4.30
2022-11-17T02:22:29.405Z,3.70
2022-11-17T02:25:22.982Z,2.90
2022-11-17T02:28:00.498Z,2.80
2022-11-17T02:30:17.508Z,3.60
2022-11-17T02:32:40.021Z,2.70
2022-11-17T02:34:58.681Z,2.80
2022-11-17T02:37:22.415Z,3.10
2022-11-17T02:39:41.962Z,3.60
2022-11-17T02:41:59.719Z,3.40
2022-11-17T02:44:19.750Z,3.40
2022-11-17T02:46:37.834Z,4.70
2022-11-17T02:48:55.594Z,3.00
2022-11-17T02:51:10.616Z,3.80
2022-11-17T02:53:26.517Z,3.80
2022-11-17T02:55:41.124Z,3.80
2022-11-17T02:57:54.288Z,2.90
2022-11-17T03:00:10.371Z,4.00
2022-11-17T03:02:54.002Z,3.20
2022-11-17T03:05:19.270Z,2.90
2022-11-17T03:07:59.156Z,2.70
2022-11-17T03:10:18.881Z,3.20
2022-11-17T03:12:45.414Z,2.80
2022-11-17T03:15:07.858Z,2.50
2022-11-17T03:17:25.492Z,3.10
2022-11-17T03:19:45.003Z,2.60
2022-11-17T03:22:07.916Z,2.90
2022-11-17T03:24:24.605Z,2.70
2022-11-17T03:26:43.675Z,2.40
2022-11-17T03:29:18.551Z,2.50
2022-11-17T03:31:33.483Z,2.20
2022-11-17T03:33:49.302Z,1.80
2022-11-17T03:36:07.236Z,2.60
2022-11-17T03:38:26.655Z,2.60
2022-11-17T03:40:42.899Z,2.10
2022-11-17T03:43:00.897Z,2.30
2022-11-17T03:45:20.136Z,2.10
2022-11-17T03:47:36.403Z,2.40
2022-11-17T03:49:55.210Z,1.80
2022-11-17T03:52:08.930Z,2.40
2022-11-17T03:54:22.286Z,2.30
2022-11-17T03:56:44.677Z,2.10
2022-11-17T03:59:03.743Z,2.10
2022-11-17T04:01:17.939Z,2.70
2022-11-17T04:03:36.257Z,1.90
2022-11-17T04:05:50.116Z,2.00
2022-11-17T04:08:03.564Z,2.20
2022-11-17T04:10:20.125Z,2.30
2022-11-17T04:12:50.570Z,3.00
2022-11-17T04:15:20.631Z,2.30
2022-11-17T04:17:34.205Z,2.60
2022-11-17T04:19:47.537Z,3.10
2022-11-17T04:22:00.910Z,2.20
2022-11-17T04:24:15.100Z,2.00
2022-11-17T04:26:45.217Z,1.90
2022-11-17T04:28:59.124Z,2.40
2022-11-17T04:31:15.050Z,3.00
2022-11-17T04:33:28.280Z,3.80
2022-11-17T04:35:41.907Z,3.90
2022-11-17T04:37:55.125Z,3.70
2022-11-17T04:40:08.848Z,3.10
2022-11-17T04:42:22.144Z,3.00
2022-11-17T04:44:36.024Z,2.70
2022-11-17T04:46:49.658Z,2.20
2022-11-17T04:49:03.075Z,2.50
2022-11-17T04:51:17.042Z,2.90
2022-11-17T04:53:30.671Z,2.60
2022-11-17T04:55:43.967Z,2.60
2022-11-17T04:57:57.174Z,2.60
2022-11-17T05:00:11.911Z,1.90
2022-11-17T05:02:25.325Z,2.50
2022-11-17T05:04:55.080Z,2.10
2022-11-17T05:07:08.749Z,2.00
2022-11-17T05:09:22.816Z,2.20
2022-11-17T05:11:52.771Z,2.20
2022-11-17T05:14:06.836Z,2.40
2022-11-17T05:16:36.937Z,2.10
2022-11-17T05:18:50.693Z,1.90
2022-11-17T05:21:07.897Z,3.20
2022-11-17T05:23:38.055Z,2.70
2022-11-17T05:25:51.387Z,3.00
2022-11-17T05:28:05.118Z,3.00
2022-11-17T05:30:20.261Z,2.20
2022-11-17T05:32:33.472Z,2.30
2022-11-17T05:34:46.882Z,2.30
2022-11-17T05:37:00.129Z,1.60
2022-11-17T05:39:15.299Z,1.50
2022-11-17T05:41:30.092Z,2.10
2022-11-17T05:43:43.487Z,1.30
2022-11-17T05:45:56.740Z,1.80
2022-11-17T05:48:10.639Z,1.40
2022-11-17T05:50:24.060Z,1.50
2022-11-17T05:52:37.296Z,1.50
2022-11-17T05:54:50.508Z,2.10
2022-11-17T05:57:07.256Z,2.10
2022-11-17T05:59:28.379Z,1.70
2022-11-17T06:01:44.558Z,1.50
2022-11-17T06:04:01.434Z,1.30
2022-11-17T06:06:15.037Z,1.70
2022-11-17T06:08:30.299Z,1.70
2022-11-17T06:10:43.550Z,3.00
2022-11-17T06:12:56.808Z,2.80
2022-11-17T06:15:10.865Z,2.00
2022-11-17T06:17:28.844Z,2.30
2022-11-17T06:19:47.779Z,1.90
2022-11-17T06:22:12.279Z,1.80
2022-11-17T06:24:27.071Z,1.80
2022-11-17T06:26:41.073Z,1.40
2022-11-17T06:28:55.582Z,1.30
2022-11-17T06:31:09.581Z,2.50
2022-11-17T06:33:23.984Z,1.60
2022-11-17T06:35:37.650Z,1.70
2022-11-17T06:37:50.833Z,2.00
2022-11-17T06:40:04.340Z,1.60
2022-11-17T06:42:17.615Z,1.70
2022-11-17T06:44:30.843Z,5.40
2022-11-17T06:46:48.793Z,2.80
2022-11-17T06:49:02.814Z,3.10
2022-11-17T06:51:16.115Z,7.50
2022-11-17T06:53:29.927Z,9.80
2022-11-17T06:55:43.461Z,5.40
2022-11-17T06:58:01.718Z,3.00
2022-11-17T07:00:17.816Z,2.10
2022-11-17T07:02:31.289Z,1.90
2022-11-17T07:04:44.831Z,1.60
2022-11-17T07:06:58.312Z,1.60
2022-11-17T07:09:12.005Z,1.80
2022-11-17T07:11:25.797Z,1.50
2022-11-17T07:13:40.085Z,1.80
2022-11-17T07:15:53.569Z,1.90
2022-11-17T07:18:07.146Z,1.80
2022-11-17T07:20:21.674Z,2.10
2022-11-17T07:22:37.782Z,2.00
2022-11-17T07:24:51.208Z,2.00
2022-11-17T07:27:06.074Z,2.10
2022-11-17T07:29:19.460Z,2.20
2022-11-17T07:31:32.939Z,2.40
2022-11-17T07:33:46.675Z,2.00
2022-11-17T07:36:00.270Z,2.60
2022-11-17T07:38:13.617Z,2.10
2022-11-17T07:40:26.952Z,2.80
2022-11-17T07:42:40.345Z,2.90
2022-11-17T07:44:53.645Z,2.30
2022-11-17T07:47:07.044Z,2.60
2022-11-17T07:49:20.475Z,2.20
2022-11-17T07:51:33.786Z,2.00
2022-11-17T07:53:47.059Z,3.40
2022-11-17T07:56:00.385Z,2.90
2022-11-17T07:58:13.707Z,2.00
2022-11-17T08:00:27.625Z,2.70
2022-11-17T08:02:41.128Z,1.70
2022-11-17T08:04:54.515Z,3.30
2022-11-17T08:07:07.849Z,2.80
2022-11-17T08:09:22.355Z,1.80
2022-11-17T08:11:35.745Z,2.20
2022-11-17T08:13:49.202Z,2.10
2022-11-17T08:16:04.363Z,2.10
2022-11-17T08:18:18.017Z,2.70
2022-11-17T08:20:32.320Z,2.70
2022-11-17T08:22:45.750Z,2.20
2022-11-17T08:24:59.288Z,1.80
2022-11-17T08:27:13.549Z,2.00
2022-11-17T08:29:26.982Z,2.00
2022-11-17T08:31:42.473Z,2.50
2022-11-17T08:33:55.982Z,2.30
2022-11-17T08:36:11.073Z,2.00
2022-11-17T08:38:26.134Z,2.30
2022-11-17T08:40:39.820Z,1.60
2022-11-17T08:43:00.945Z,1.80
2022-11-17T08:45:16.110Z,2.00
2022-11-17T08:47:29.580Z,1.60
2022-11-17T08:49:43.551Z,1.80
2022-11-17T08:51:56.836Z,1.90
2022-11-17T08:54:10.436Z,2.00
2022-11-17T08:56:24.820Z,2.10
2022-11-17T08:58:41.215Z,2.10
2022-11-17T09:00:54.583Z,2.10
2022-11-17T09:03:11.490Z,2.00
2022-11-17T09:05:26.284Z,2.10
2022-11-17T09:07:41.155Z,1.60
2022-11-17T09:09:54.498Z,1.60
2022-11-17T09:12:07.861Z,1.90
2022-11-17T09:14:24.060Z,1.80
2022-11-17T09:16:38.070Z,1.70
2022-11-17T09:18:51.459Z,2.00
2022-11-17T09:21:08.175Z,2.10
2022-11-17T09:23:21.500Z,2.00
2022-11-17T09:25:35.474Z,2.00
2022-11-17T09:27:49.107Z,1.90
2022-11-17T09:30:02.643Z,2.00
2022-11-17T09:32:17.915Z,2.10
2022-11-17T09:34:31.339Z,2.00
2022-11-17T09:36:45.313Z,1.90
2022-11-17T09:38:58.811Z,2.50
2022-11-17T09:41:27.691Z,3.40
2022-11-17T09:43:43.545Z,3.10
2022-11-17T09:46:03.082Z,3.50
2022-11-17T09:50:54.079Z,3.50
2022-11-17T09:53:16.222Z,3.60
2022-11-17T09:55:34.564Z,3.70
2022-11-17T09:57:51.951Z,4.00
2022-11-17T10:00:17.939Z,3.80
2022-11-17T10:02:31.300Z,3.80
2022-11-17T10:04:44.649Z,3.60
2022-11-17T10:06:58.255Z,2.80
2022-11-17T10:09:25.449Z,3.40
2022-11-17T10:11:41.763Z,3.10
2022-11-17T10:13:55.726Z,3.60
2022-11-17T10:16:15.956Z,3.20
2022-11-17T10:18:31.483Z,3.90
2022-11-17T10:20:49.413Z,3.00
2022-11-17T10:23:05.624Z,3.50
2022-11-17T10:25:39.939Z,2.30
2022-11-17T10:27:57.754Z,3.30
2022-11-17T10:30:24.301Z,3.60
2022-11-17T10:32:39.945Z,3.60
2022-11-17T10:34:56.242Z,3.30
2022-11-17T10:37:29.467Z,3.40
2022-11-17T10:39:46.964Z,2.80
2022-11-17T10:42:00.579Z,2.70
2022-11-17T10:44:31.611Z,2.50
2022-11-17T10:47:02.778Z,2.30
2022-11-17T10:49:31.316Z,2.90
2022-11-17T10:51:44.641Z,2.70
2022-11-17T10:54:10.828Z,3.40
2022-11-17T10:56:26.170Z,3.00
2022-11-17T10:58:52.527Z,3.70
2022-11-17T11:01:08.128Z,2.80
2022-11-17T11:03:26.595Z,3.00
2022-11-17T11:06:04.905Z,2.60
2022-11-17T11:08:54.932Z,2.40
2022-11-17T11:11:11.985Z,2.50
2022-11-17T11:13:52.062Z,3.20
2022-11-17T11:16:05.579Z,3.70
2022-11-17T11:18:21.363Z,2.80
2022-11-17T11:20:49.473Z,2.70
2022-11-17T11:23:11.642Z,3.20
2022-11-17T11:25:38.318Z,3.10
2022-11-17T11:28:20.802Z,2.40
2022-11-17T11:30:35.595Z,3.10
2022-11-17T11:33:04.643Z,2.80
2022-11-17T11:35:44.432Z,2.60
2022-11-17T11:38:02.547Z,2.50
2022-11-17T11:40:23.575Z,2.60
2022-11-17T11:42:49.616Z,3.10
2022-11-17T11:45:25.937Z,2.90
2022-11-17T11:47:53.170Z,2.90
2022-11-17T11:50:14.965Z,2.60
2022-11-17T11:52:32.358Z,2.70
2022-11-17T11:54:51.089Z,2.80
2022-11-17T11:57:05.424Z,2.70
2022-11-17T11:59:23.337Z,3.00
2022-11-17T12:01:41.848Z,2.90
2022-11-17T12:04:10.012Z,3.10
2022-11-17T12:06:44.855Z,2.90
2022-11-17T12:09:07.236Z,3.30
2022-11-17T12:11:41.418Z,2.80
2022-11-17T12:13:55.696Z,2.80
2022-11-17T12:16:31.239Z,3.70
2022-11-17T12:18:44.504Z,3.40
2022-11-17T12:21:04.343Z,3.20
2022-11-17T12:23:30.464Z,3.10
2022-11-17T12:25:54.129Z,3.40
2022-11-17T12:28:33.305Z,3.20
2022-11-17T12:31:06.645Z,3.40
2022-11-17T12:33:23.467Z,3.10
2022-11-17T12:35:38.369Z,3.60
2022-11-17T12:37:51.667Z,3.10
2022-11-17T12:40:33.161Z,2.50
2022-11-17T12:43:25.284Z,2.30
2022-11-17T12:46:05.911Z,3.10
2022-11-17T12:48:33.615Z,2.20
2022-11-17T12:51:04.857Z,2.40
2022-11-17T12:53:32.738Z,3.40
2022-11-17T12:56:01.024Z,2.70
2022-11-17T12:58:23.908Z,2.70
2022-11-17T13:00:44.942Z,3.90
2022-11-17T13:03:11.720Z,2.80
2022-11-17T13:05:27.155Z,3.20
2022-11-17T13:07:41.019Z,3.20
2022-11-17T13:09:58.080Z,2.80
2022-11-17T13:12:14.093Z,3.90
2022-11-17T13:14:27.402Z,3.10
2022-11-17T13:16:41.809Z,4.60
2022-11-17T13:18:55.740Z,4.40
2022-11-17T13:21:19.469Z,5.10
2022-11-17T13:23:34.477Z,3.20
2022-11-17T13:25:47.885Z,4.80
2022-11-17T13:28:04.842Z,3.20
2022-11-17T13:30:28.583Z,3.60
2022-11-17T13:32:45.169Z,4.20
2022-11-17T13:35:02.930Z,3.70
2022-11-17T13:37:23.888Z,3.60
2022-11-17T13:39:37.327Z,3.90
2022-11-17T13:41:51.243Z,3.20
2022-11-17T13:44:04.662Z,2.90
2022-11-17T13:46:18.230Z,5.20
2022-11-17T13:48:42.500Z,4.10
2022-11-17T13:50:55.981Z,4.00
2022-11-17T13:53:23.085Z,3.60
2022-11-17T13:55:37.326Z,2.80
2022-11-17T13:58:00.950Z,3.70
2022-11-17T14:00:25.180Z,3.80
2022-11-17T14:02:38.962Z,4.60
2022-11-17T14:05:24.076Z,5.10
2022-11-17T14:07:40.686Z,3.30
2022-11-17T14:10:14.239Z,3.10
2022-11-17T14:12:27.459Z,2.80
2022-11-17T14:14:44.310Z,3.10
2022-11-17T14:16:58.854Z,4.20
2022-11-17T14:19:32.664Z,4.00
2022-11-17T14:22:04.581Z,2.60
2022-11-17T14:24:20.720Z,3.10
2022-11-17T14:26:34.297Z,2.30
2022-11-17T14:28:47.917Z,3.80
2022-11-17T14:31:02.158Z,3.90
2022-11-17T14:33:15.667Z,3.30
2022-11-17T14:35:29.398Z,3.60
2022-11-17T14:37:42.819Z,3.90
2022-11-17T14:39:56.255Z,3.30
2022-11-17T14:42:09.805Z,3.90
2022-11-17T14:44:24.444Z,4.30
2022-11-17T14:46:38.699Z,4.30
2022-11-17T14:48:52.017Z,4.20
2022-11-17T14:51:06.179Z,3.90
2022-11-17T14:53:22.426Z,4.60
2022-11-17T14:55:35.815Z,5.50
2022-11-17T14:57:50.811Z,5.90
2022-11-17T15:00:04.135Z,3.40
2022-11-17T15:02:18.900Z,4.60
2022-11-17T15:07:05.568Z,3.90
2022-11-17T15:09:21.673Z,3.90
2022-11-17T15:11:39.436Z,4.80
2022-11-17T15:13:53.038Z,4.40
2022-11-17T15:16:10.897Z,5.00
2022-11-17T15:18:24.090Z,5.30
2022-11-17T15:20:37.414Z,5.00
2022-11-17T15:22:50.683Z,3.90
2022-11-17T15:25:04.125Z,3.70
2022-11-17T15:27:17.837Z,4.80
2022-11-17T15:29:31.321Z,2.90
2022-11-17T15:31:44.813Z,4.10
2022-11-17T15:33:58.638Z,4.60
2022-11-17T15:36:13.782Z,4.00
2022-11-17T15:38:27.040Z,4.40
2022-11-17T15:40:40.424Z,5.10
2022-11-17T15:42:55.976Z,4.80
2022-11-17T15:45:10.898Z,4.30
2022-11-17T15:47:24.282Z,3.90
2022-11-17T15:49:37.512Z,4.30
2022-11-17T15:51:50.731Z,4.90
2022-11-17T15:54:05.104Z,3.80
2022-11-17T15:56:20.675Z,3.30
2022-11-17T15:58:33.945Z,3.70
2022-11-17T16:00:47.147Z,2.80
2022-11-17T16:03:00.537Z,4.00
2022-11-17T16:05:15.553Z,4.90
2022-11-17T16:07:29.034Z,3.30
2022-11-17T16:09:44.952Z,4.40
2022-11-17T16:12:00.797Z,3.40
2022-11-17T16:14:16.074Z,4.60
2022-11-17T16:16:30.720Z,4.00
2022-11-17T16:18:44.362Z,3.50
2022-11-17T16:21:02.985Z,3.80
2022-11-17T16:23:18.541Z,3.90
2022-11-17T16:25:31.979Z,4.70
2022-11-17T16:27:45.597Z,4.50
2022-11-17T16:29:59.065Z,4.40
2022-11-17T16:32:12.680Z,4.10
2022-11-17T16:34:27.393Z,4.30
2022-11-17T16:36:42.384Z,4.50
2022-11-17T16:39:01.784Z,3.50
2022-11-17T16:41:15.949Z,4.10
2022-11-17T16:43:29.724Z,3.80
2022-11-17T16:45:48.319Z,3.20
2022-11-17T16:48:01.943Z,4.40
2022-11-17T16:50:16.061Z,3.70
2022-11-17T16:52:29.447Z,4.20
2022-11-17T16:54:43.247Z,3.70
2022-11-17T16:56:56.591Z,4.40
2022-11-17T16:59:10.155Z,3.70
2022-11-17T17:01:25.173Z,4.40
2022-11-17T17:03:39.269Z,3.50
2022-11-17T17:05:52.897Z,4.20
2022-11-17T17:08:06.325Z,5.80
2022-11-17T17:10:19.879Z,4.10
2022-11-17T17:12:33.743Z,5.00
2022-11-17T17:14:47.176Z,3.40
2022-11-17T17:17:00.722Z,3.90
2022-11-17T17:19:15.743Z,5.20
2022-11-17T17:21:29.706Z,3.80
2022-11-17T17:23:43.443Z,4.10
2022-11-17T17:26:06.259Z,4.20
2022-11-17T17:28:19.889Z,4.50
2022-11-17T17:30:33.366Z,3.70
2022-11-17T17:32:46.838Z,4.40
2022-11-17T17:35:00.138Z,3.40
2022-11-17T17:37:13.484Z,3.70
2022-11-17T17:39:26.913Z,4.00
2022-11-17T17:41:42.147Z,3.70
2022-11-17T17:44:01.143Z,3.50
2022-11-17T17:46:17.124Z,3.50
2022-11-17T17:48:30.731Z,3.20
2022-11-17T17:50:44.426Z,4.50
2022-11-17T17:52:59.724Z,3.90
2022-11-17T17:55:14.866Z,3.10
2022-11-17T17:57:33.738Z,4.10
2022-11-17T17:59:49.555Z,4.00
2022-11-17T18:02:03.138Z,4.30
2022-11-17T18:04:17.101Z,4.70
2022-11-17T18:06:31.109Z,5.00
2022-11-17T18:08:45.060Z,4.40
2022-11-17T18:11:02.666Z,4.70
2022-11-17T18:13:16.056Z,4.10
2022-11-17T18:15:29.644Z,4.90
2022-11-17T18:17:43.010Z,5.30
2022-11-17T18:19:56.281Z,5.30
2022-11-17T18:22:09.511Z,4.60
2022-11-17T18:24:23.366Z,5.20
2022-11-17T18:26:38.407Z,6.10
2022-11-17T18:28:56.913Z,5.90
2022-11-17T18:31:11.121Z,5.20
2022-11-17T18:33:24.685Z,4.90
2022-11-17T18:35:38.416Z,6.40
2022-11-17T18:37:51.740Z,4.90
2022-11-17T18:40:05.589Z,5.10
2022-11-17T18:42:18.974Z,5.00
2022-11-17T18:44:32.687Z,5.40
2022-11-17T18:46:46.430Z,5.50
2022-11-17T18:48:59.806Z,5.80
2022-11-17T18:51:19.469Z,5.80
2022-11-17T18:53:35.683Z,5.40
2022-11-17T18:55:49.000Z,6.00
2022-11-17T18:58:02.373Z,6.30
2022-11-17T19:00:17.492Z,5.10
2022-11-17T19:02:31.185Z,6.70
2022-11-17T19:04:44.555Z,6.80
2022-11-17T19:06:57.829Z,5.20
2022-11-17T19:09:12.001Z,6.50
2022-11-17T19:11:26.391Z,5.40
2022-11-17T19:13:41.255Z,6.90
2022-11-17T19:15:55.180Z,7.20
2022-11-17T19:18:08.533Z,6.00
2022-11-17T19:20:22.242Z,6.40
2022-11-17T19:22:36.500Z,6.90
2022-11-17T19:24:50.306Z,6.80
2022-11-17T19:27:03.524Z,4.50
2022-11-17T19:29:18.113Z,6.40
2022-11-17T19:31:32.116Z,5.60
2022-11-17T19:33:46.351Z,7.40
2022-11-17T19:35:59.797Z,6.70
2022-11-17T19:38:13.214Z,7.00
2022-11-17T19:40:26.559Z,5.30
2022-11-17T19:42:39.779Z,5.90
2022-11-17T19:44:53.151Z,6.50
2022-11-17T19:47:06.477Z,6.30
2022-11-17T19:49:19.886Z,7.30
2022-11-17T19:51:34.909Z,6.40
2022-11-17T19:53:48.598Z,6.10
2022-11-17T19:56:03.891Z,6.30
2022-11-17T19:58:18.015Z,6.50
2022-11-17T20:00:31.434Z,5.30
2022-11-17T20:02:44.836Z,5.00
2022-11-17T20:04:58.021Z,7.00
2022-11-17T20:07:15.323Z,6.30
2022-11-17T20:09:28.837Z,6.80
2022-11-17T20:11:42.864Z,5.70
2022-11-17T20:13:56.514Z,6.50
2022-11-17T20:16:12.426Z,6.90
2022-11-17T20:18:26.294Z,5.90
2022-11-17T20:20:39.984Z,6.80
2022-11-17T20:22:53.271Z,6.60
2022-11-17T20:25:06.954Z,5.80
2022-11-17T20:27:20.495Z,4.60
2022-11-17T20:29:33.723Z,6.00
2022-11-17T20:31:47.629Z,5.60
2022-11-17T20:34:02.518Z,5.50
2022-11-17T20:36:18.868Z,6.10
2022-11-17T20:38:33.527Z,6.10
2022-11-17T20:40:46.960Z,5.60
2022-11-17T20:43:01.654Z,6.10
2022-11-17T20:45:15.948Z,6.20
2022-11-17T20:47:29.845Z,5.30
2022-11-17T20:49:43.357Z,6.40
2022-11-17T20:51:56.867Z,6.80
2022-11-17T20:54:11.714Z,6.90
2022-11-17T20:56:25.247Z,6.10
2022-11-17T20:58:38.902Z,6.50
2022-11-17T21:00:52.596Z,5.90
2022-11-17T21:03:06.197Z,7.10
2022-11-17T21:05:19.699Z,6.50
2022-11-17T21:07:33.244Z,6.60
2022-11-17T21:09:46.694Z,6.90
2022-11-17T21:12:00.170Z,6.40
2022-11-17T21:14:15.342Z,6.70
2022-11-17T21:16:28.956Z,6.40
2022-11-17T21:18:43.413Z,6.70
2022-11-17T21:20:59.119Z,6.60
2022-11-17T21:23:12.484Z,7.30
2022-11-17T21:25:25.795Z,6.80
2022-11-17T21:27:39.181Z,6.30
2022-11-17T21:29:53.330Z,6.10
2022-11-17T21:32:06.560Z,6.00
2022-11-17T21:34:21.998Z,6.90
2022-11-17T21:36:36.554Z,6.00
2022-11-17T21:38:50.358Z,6.30
2022-11-17T21:41:07.691Z,6.60
2022-11-17T21:43:21.030Z,6.90
2022-11-17T21:45:35.974Z,7.00
2022-11-17T21:47:49.463Z,6.60
2022-11-17T21:50:02.795Z,7.30
2022-11-17T21:52:16.065Z,7.30
2022-11-17T21:54:29.394Z,7.40
2022-11-17T21:56:42.688Z,6.60
2022-11-17T21:58:59.852Z,6.80
2022-11-17T22:01:18.268Z,7.50
2022-11-17T22:03:31.847Z,7.00
2022-11-17T22:05:45.225Z,6.40
2022-11-17T22:07:58.744Z,6.90
2022-11-17T22:10:13.419Z,4.50
2022-11-17T22:12:27.726Z,6.60
2022-11-17T22:14:41.132Z,6.30
2022-11-17T22:16:56.242Z,6.70
2022-11-17T22:19:15.811Z,6.60
2022-11-17T22:21:29.573Z,6.80
2022-11-17T22:23:42.845Z,7.30
2022-11-17T22:26:01.815Z,7.20
2022-11-17T22:28:15.919Z,7.10
2022-11-17T22:30:29.198Z,7.00
2022-11-17T22:32:45.177Z,8.30
2022-11-17T22:35:02.556Z,6.70
2022-11-17T22:37:15.884Z,7.10
2022-11-17T22:39:29.191Z,7.20
2022-11-17T22:41:42.284Z,7.10
2022-11-17T22:43:59.530Z,6.30
2022-11-17T22:46:14.891Z,7.00
2022-11-17T22:48:28.302Z,7.00
2022-11-17T22:50:41.862Z,6.30
2022-11-17T22:52:55.200Z,6.70
2022-11-17T22:55:08.819Z,7.20
2022-11-17T22:57:22.104Z,6.70
2022-11-17T22:59:36.837Z,6.70
2022-11-17T23:01:50.113Z,5.70
2022-11-17T23:04:03.606Z,7.10
2022-11-17T23:06:17.088Z,7.00
2022-11-17T23:08:30.366Z,6.90
2022-11-17T23:10:43.741Z,5.90
2022-11-17T23:12:57.097Z,7.00
2022-11-17T23:15:11.624Z,7.10
2022-11-17T23:17:24.944Z,6.60
2022-11-17T23:19:38.562Z,6.90
2022-11-17T23:21:51.827Z,6.00
2022-11-17T23:24:05.082Z,6.10
2022-11-17T23:26:18.631Z,6.00
2022-11-17T23:28:31.835Z,6.20
2022-11-17T23:30:45.120Z,6.20
2022-11-17T23:32:58.909Z,6.80
2022-11-17T23:35:14.140Z,5.90
2022-11-17T23:37:27.508Z,6.60
2022-11-17T23:39:40.772Z,6.20
2022-11-17T23:41:54.008Z,6.40
2022-11-17T23:44:07.790Z,6.80
2022-11-17T23:46:22.084Z,6.10
2022-11-17T23:48:35.281Z,5.90
2022-11-17T23:50:48.494Z,5.90
2022-11-17T23:53:01.861Z,5.60
2022-11-17T23:55:15.700Z,5.80
2022-11-17T23:57:29.067Z,6.30
2022-11-17T23:59:42.701Z,5.50
